Hartford, Connecticut
Traffic Map
Current Weather Conditions
Hartford, Connecticut
Overcast
Overcast
38°
Feels Like: 38°
Wind Chill: 38° Ceiling: 11000
Heat Index: 38° Visibility: 10mi
Dew Point: 36° Wind: 0mph
Humidity: 93% Direction: ° ()
Pressure: 29.88in Gusts: 0mph
Raw Report DataKHFD 230753Z AUTO 00000KT 10SM OVC110 03/02 A2988 RMK AO2 SLP118 T00330022
Traffic Incident Summary
Active as of:
Severity:
Category:
InformationThere was an issue retrieving the traffic information for this location. Please try a different location or try again shortly.
Advertisements
Track Severe Weather on mobile